createdAt,value
2018-12-19T00:01:20.493Z,4.00
2018-12-19T00:03:49.976Z,3.80
2018-12-19T00:06:19.446Z,3.80
2018-12-19T00:08:51.073Z,3.90
2018-12-19T00:11:20.595Z,3.90
2018-12-19T00:13:50.139Z,3.90
2018-12-19T00:16:19.643Z,3.90
2018-12-19T00:18:49.175Z,4.00
2018-12-19T00:21:18.710Z,4.00
2018-12-19T00:23:48.466Z,4.00
2018-12-19T00:26:18.172Z,3.90
2018-12-19T00:28:47.705Z,3.90
2018-12-19T00:31:17.193Z,3.80
2018-12-19T00:33:46.947Z,3.80
2018-12-19T00:36:16.552Z,3.90
2018-12-19T00:38:46.116Z,4.00
2018-12-19T00:41:15.722Z,4.00
2018-12-19T00:43:45.215Z,4.10
2018-12-19T00:46:14.723Z,4.20
2018-12-19T00:48:44.269Z,4.20
2018-12-19T00:51:13.864Z,4.20
2018-12-19T00:53:43.372Z,4.30
2018-12-19T00:56:12.921Z,4.30
2018-12-19T00:58:42.490Z,4.30
2018-12-19T01:01:11.980Z,4.30
2018-12-19T01:03:41.568Z,4.30
2018-12-19T01:06:11.086Z,4.30
2018-12-19T01:08:40.571Z,4.20
2018-12-19T01:11:10.006Z,4.30
2018-12-19T01:13:39.679Z,4.30
2018-12-19T01:16:09.151Z,4.20
2018-12-19T01:18:38.709Z,4.30
2018-12-19T01:21:08.318Z,4.10
2018-12-19T01:23:37.790Z,4.20
2018-12-19T01:26:07.338Z,4.20
2018-12-19T01:28:36.820Z,4.30
2018-12-19T01:31:06.597Z,4.30
2018-12-19T01:33:36.152Z,4.30
2018-12-19T01:36:05.761Z,4.40
2018-12-19T01:38:35.248Z,4.40
2018-12-19T01:41:04.693Z,4.40
2018-12-19T01:43:34.164Z,4.50
2018-12-19T01:46:03.821Z,4.50
2018-12-19T01:48:33.274Z,4.60
2018-12-19T01:51:02.853Z,4.60
2018-12-19T01:53:32.304Z,4.50
2018-12-19T01:56:02.245Z,4.50
2018-12-19T01:58:31.743Z,4.50
2018-12-19T02:01:01.230Z,4.50
2018-12-19T02:03:30.815Z,4.60
2018-12-19T02:06:00.271Z,4.60
2018-12-19T02:08:29.722Z,4.60
2018-12-19T02:10:59.250Z,4.60
2018-12-19T02:13:28.889Z,4.70
2018-12-19T02:15:58.470Z,4.70
2018-12-19T02:18:27.953Z,4.60
2018-12-19T02:20:57.485Z,4.60
2018-12-19T02:23:27.105Z,4.60
2018-12-19T02:25:56.713Z,4.70
2018-12-19T02:28:26.174Z,4.70
2018-12-19T02:30:55.700Z,4.70
2018-12-19T02:33:25.221Z,4.70
2018-12-19T02:35:54.800Z,4.70
2018-12-19T02:38:24.264Z,4.70
2018-12-19T02:40:53.715Z,4.80
2018-12-19T02:43:23.269Z,4.70
2018-12-19T02:45:52.958Z,4.70
2018-12-19T02:48:22.408Z,4.80
2018-12-19T02:50:51.874Z,4.70
2018-12-19T02:53:21.435Z,4.80
2018-12-19T02:55:51.220Z,4.80
2018-12-19T02:58:20.903Z,4.80
2018-12-19T03:00:50.368Z,4.80
2018-12-19T03:03:19.922Z,4.80
2018-12-19T03:05:49.373Z,4.80
2018-12-19T03:08:18.881Z,4.90
2018-12-19T03:10:48.767Z,4.90
2018-12-19T03:13:18.255Z,4.80
2018-12-19T03:15:47.851Z,4.80
2018-12-19T03:18:17.318Z,4.90
2018-12-19T03:20:46.828Z,4.70
2018-12-19T03:23:16.302Z,4.70
2018-12-19T03:25:45.794Z,4.70
2018-12-19T03:28:15.389Z,4.50
2018-12-19T03:30:44.885Z,4.60
2018-12-19T03:33:14.441Z,4.60
2018-12-19T03:35:43.957Z,4.70
2018-12-19T03:38:17.504Z,4.70
2018-12-19T03:40:47.282Z,4.70
2018-12-19T03:43:16.881Z,4.60
2018-12-19T03:45:46.351Z,4.70
2018-12-19T03:48:21.046Z,4.70
2018-12-19T03:50:50.615Z,4.80
2018-12-19T03:53:20.090Z,4.90
2018-12-19T03:55:49.675Z,4.80
2018-12-19T03:58:19.120Z,4.80
2018-12-19T04:00:48.806Z,4.80
2018-12-19T04:03:18.299Z,4.90
2018-12-19T04:05:48.161Z,4.90
2018-12-19T04:08:17.807Z,4.80
2018-12-19T04:10:47.380Z,4.80
2018-12-19T04:13:16.898Z,4.80
2018-12-19T04:15:46.407Z,4.80
2018-12-19T04:18:16.024Z,4.80
2018-12-19T04:20:48.304Z,4.80
2018-12-19T04:23:18.047Z,4.90
2018-12-19T04:25:47.635Z,4.90
2018-12-19T04:28:17.246Z,4.90
2018-12-19T04:30:47.357Z,4.90
2018-12-19T04:33:16.927Z,4.70
2018-12-19T04:35:46.726Z,4.80
2018-12-19T04:38:16.628Z,4.90
2018-12-19T04:40:46.126Z,4.90
2018-12-19T04:43:15.600Z,5.00
2018-12-19T04:45:45.125Z,4.90
2018-12-19T04:48:14.591Z,4.90
2018-12-19T04:50:44.069Z,4.90
2018-12-19T04:53:14.622Z,4.90
2018-12-19T04:55:44.304Z,4.90
2018-12-19T04:58:13.849Z,4.80
2018-12-19T05:00:43.321Z,4.60
2018-12-19T05:03:13.034Z,4.70
2018-12-19T05:05:42.571Z,4.90
2018-12-19T05:08:12.098Z,4.80
2018-12-19T05:10:41.562Z,4.90
2018-12-19T05:13:11.063Z,4.90
2018-12-19T05:15:40.543Z,5.00
2018-12-19T05:18:10.137Z,5.00
2018-12-19T05:20:39.649Z,5.10
2018-12-19T05:23:09.140Z,5.10
2018-12-19T05:25:38.979Z,5.20
2018-12-19T05:28:08.626Z,5.20
2018-12-19T05:30:38.536Z,5.30
2018-12-19T05:33:08.178Z,5.10
2018-12-19T05:35:39.017Z,5.20
2018-12-19T05:38:08.521Z,5.20
2018-12-19T05:40:38.316Z,5.20
2018-12-19T05:43:07.906Z,5.30
2018-12-19T05:45:38.392Z,5.40
2018-12-19T05:48:08.171Z,5.40
2018-12-19T05:50:38.014Z,5.30
2018-12-19T05:53:07.755Z,5.40
2018-12-19T05:55:37.231Z,5.40
2018-12-19T05:58:06.707Z,5.30
2018-12-19T06:00:36.195Z,5.40
2018-12-19T06:03:05.660Z,5.50
2018-12-19T06:05:35.749Z,5.50
2018-12-19T06:08:05.249Z,5.50
2018-12-19T06:10:34.792Z,5.50
2018-12-19T06:13:04.438Z,5.50
2018-12-19T06:15:35.387Z,5.50
2018-12-19T06:18:05.075Z,5.60
2018-12-19T06:20:34.996Z,5.50
2018-12-19T06:23:05.099Z,5.50
2018-12-19T06:25:34.711Z,5.50
2018-12-19T06:28:04.204Z,5.40
2018-12-19T06:30:34.425Z,5.50
2018-12-19T06:33:03.971Z,5.50
2018-12-19T06:35:33.445Z,5.50
2018-12-19T06:38:02.943Z,5.50
2018-12-19T06:40:32.798Z,5.50
2018-12-19T06:43:02.561Z,5.50
2018-12-19T06:45:31.980Z,5.60
2018-12-19T06:48:01.491Z,5.70
2018-12-19T06:50:30.994Z,5.70
2018-12-19T06:53:00.480Z,5.70
2018-12-19T06:55:30.027Z,5.70
2018-12-19T06:57:59.634Z,5.70
2018-12-19T07:00:29.231Z,5.70
2018-12-19T07:02:58.687Z,5.70
2018-12-19T07:05:28.173Z,5.70
2018-12-19T07:07:57.679Z,5.70
2018-12-19T07:10:27.271Z,5.70
2018-12-19T07:12:56.808Z,5.70
2018-12-19T07:15:26.288Z,5.70
2018-12-19T07:17:55.930Z,5.70
2018-12-19T07:20:25.408Z,5.70
2018-12-19T07:22:54.978Z,5.70
2018-12-19T07:25:25.650Z,5.70
2018-12-19T07:27:55.093Z,5.70
2018-12-19T07:30:24.598Z,5.80
2018-12-19T07:32:54.515Z,5.80
2018-12-19T07:35:24.131Z,5.80
2018-12-19T07:37:53.600Z,5.80
2018-12-19T07:40:23.088Z,5.80
2018-12-19T07:42:52.650Z,5.80
2018-12-19T07:45:22.102Z,5.90
2018-12-19T07:47:51.653Z,5.90
2018-12-19T07:50:21.155Z,5.90
2018-12-19T07:52:50.819Z,5.90
2018-12-19T07:55:20.315Z,5.90
2018-12-19T07:57:49.814Z,5.90
2018-12-19T08:00:19.430Z,5.90
2018-12-19T08:02:49.030Z,6.00
2018-12-19T08:05:18.510Z,6.00
2018-12-19T08:07:48.003Z,6.00
2018-12-19T08:10:17.614Z,6.10
2018-12-19T08:12:47.233Z,6.10
2018-12-19T08:15:16.942Z,6.00
2018-12-19T08:17:46.435Z,6.00
2018-12-19T08:20:15.901Z,6.00
2018-12-19T08:22:45.349Z,6.00
2018-12-19T08:25:14.837Z,6.00
2018-12-19T08:27:44.301Z,6.10
2018-12-19T08:30:13.826Z,6.20
2018-12-19T08:32:43.398Z,6.20
2018-12-19T08:35:12.863Z,6.20
2018-12-19T08:37:42.520Z,6.20
2018-12-19T08:40:12.022Z,6.20
2018-12-19T08:42:41.518Z,6.20
2018-12-19T08:45:11.115Z,6.20
2018-12-19T08:47:40.596Z,6.20
2018-12-19T08:50:11.068Z,6.20
2018-12-19T08:52:40.674Z,6.10
2018-12-19T08:55:10.225Z,6.20
2018-12-19T08:57:39.722Z,6.20
2018-12-19T09:00:11.884Z,6.20
2018-12-19T09:02:41.741Z,6.10
2018-12-19T09:05:11.323Z,6.10
2018-12-19T09:07:40.840Z,6.10
2018-12-19T09:10:10.421Z,6.10
2018-12-19T09:12:39.895Z,6.20
2018-12-19T09:15:09.595Z,6.10
2018-12-19T09:17:39.122Z,6.20
2018-12-19T09:20:09.533Z,6.20
2018-12-19T09:22:39.088Z,6.20
2018-12-19T09:25:08.763Z,6.20
2018-12-19T09:27:38.222Z,6.10
2018-12-19T09:30:07.836Z,6.10
2018-12-19T09:32:37.424Z,6.00
2018-12-19T09:35:07.042Z,6.00
2018-12-19T09:37:36.574Z,6.00
2018-12-19T09:40:06.065Z,6.10
2018-12-19T09:42:35.571Z,6.20
2018-12-19T09:45:05.658Z,6.30
2018-12-19T09:47:35.390Z,6.30
2018-12-19T09:50:05.488Z,6.40
2018-12-19T09:52:34.961Z,6.50
2018-12-19T09:55:05.063Z,6.50
2018-12-19T09:57:34.555Z,6.60
2018-12-19T10:00:05.026Z,6.70
2018-12-19T10:02:34.638Z,6.80
2018-12-19T10:05:04.232Z,6.90
2018-12-19T10:07:34.249Z,6.90
2018-12-19T10:10:03.734Z,6.90
2018-12-19T10:12:33.321Z,6.80
2018-12-19T10:15:02.966Z,6.80
2018-12-19T10:17:33.042Z,6.80
2018-12-19T10:20:02.556Z,6.90
2018-12-19T10:22:32.022Z,6.90
2018-12-19T10:25:07.355Z,6.90
2018-12-19T10:27:36.829Z,7.00
2018-12-19T10:30:10.030Z,7.00
2018-12-19T10:32:39.665Z,7.10
2018-12-19T10:35:11.229Z,7.10
2018-12-19T10:37:40.771Z,7.10
2018-12-19T10:40:12.572Z,7.20
2018-12-19T10:42:42.889Z,7.30
2018-12-19T10:45:12.395Z,7.20
2018-12-19T10:47:41.902Z,7.30
2018-12-19T10:50:11.980Z,7.40
2018-12-19T10:52:41.458Z,7.50
2018-12-19T10:55:11.146Z,7.60
2018-12-19T10:57:40.786Z,7.70
2018-12-19T11:01:16.644Z,7.70
2018-12-19T11:03:46.112Z,7.50
2018-12-19T11:06:15.592Z,7.70
2018-12-19T11:08:45.206Z,7.90
2018-12-19T11:11:14.691Z,7.70
2018-12-19T11:13:44.272Z,7.50
2018-12-19T11:16:13.829Z,7.40
2018-12-19T11:18:43.434Z,7.70
2018-12-19T11:21:13.137Z,7.80
2018-12-19T11:23:42.676Z,7.90
2018-12-19T11:26:12.130Z,7.80
2018-12-19T11:28:41.763Z,7.70
2018-12-19T11:31:11.430Z,7.90
2018-12-19T11:33:41.242Z,7.90
2018-12-19T11:36:10.701Z,7.80
2018-12-19T11:38:40.297Z,7.90
2018-12-19T11:41:09.866Z,7.90
2018-12-19T11:43:39.357Z,7.90
2018-12-19T11:46:08.908Z,7.90
2018-12-19T11:48:38.505Z,7.50
2018-12-19T11:51:07.988Z,7.50
2018-12-19T11:53:37.466Z,7.50
2018-12-19T11:56:07.005Z,7.60
2018-12-19T11:58:40.737Z,7.60
2018-12-19T12:01:10.342Z,7.60
2018-12-19T12:03:39.959Z,7.50
2018-12-19T12:06:09.448Z,7.60
2018-12-19T12:08:38.933Z,7.70
2018-12-19T12:11:08.552Z,7.70
2018-12-19T12:13:38.009Z,7.70
2018-12-19T12:16:07.466Z,7.70
2018-12-19T12:18:36.937Z,7.70
2018-12-19T12:21:06.668Z,7.70
2018-12-19T12:23:36.307Z,7.70
2018-12-19T12:26:05.818Z,7.80
2018-12-19T12:28:35.313Z,7.60
2018-12-19T12:31:04.986Z,7.60
2018-12-19T12:33:34.522Z,7.60
2018-12-19T12:36:04.275Z,7.60
2018-12-19T12:38:34.229Z,7.60
2018-12-19T12:41:04.034Z,7.60
2018-12-19T12:43:33.508Z,7.60
2018-12-19T12:46:02.971Z,7.60
2018-12-19T12:48:32.460Z,7.60
2018-12-19T12:51:02.067Z,7.70
2018-12-19T12:53:31.534Z,7.70
2018-12-19T12:56:01.012Z,7.70
2018-12-19T12:58:30.509Z,7.70
2018-12-19T13:01:00.037Z,7.60
2018-12-19T13:03:29.512Z,7.60
2018-12-19T13:05:59.014Z,7.70
2018-12-19T13:08:28.481Z,7.70
2018-12-19T13:10:57.954Z,7.80
2018-12-19T13:13:27.579Z,7.80
2018-12-19T13:15:57.243Z,7.80
2018-12-19T13:18:26.760Z,7.80
2018-12-19T13:20:56.423Z,7.90
2018-12-19T13:23:26.870Z,7.90
2018-12-19T13:25:56.495Z,7.90
2018-12-19T13:28:25.985Z,7.90
2018-12-19T13:30:55.482Z,7.90
2018-12-19T13:33:25.208Z,7.80
2018-12-19T13:35:54.948Z,7.70
2018-12-19T13:38:24.456Z,7.80
2018-12-19T13:40:54.089Z,7.80
2018-12-19T13:43:23.715Z,7.80
2018-12-19T13:45:53.207Z,7.90
2018-12-19T13:48:22.723Z,7.90
2018-12-19T13:50:52.276Z,7.90
2018-12-19T13:53:21.876Z,7.90
2018-12-19T13:55:51.441Z,7.80
2018-12-19T13:58:21.278Z,7.90
2018-12-19T14:00:50.761Z,7.80
2018-12-19T14:03:20.314Z,7.90
2018-12-19T14:05:49.814Z,8.00
2018-12-19T14:08:19.428Z,8.00
2018-12-19T14:10:49.146Z,8.10
2018-12-19T14:13:18.829Z,8.10
2018-12-19T14:15:48.461Z,8.20
2018-12-19T14:18:18.027Z,8.20
2018-12-19T14:20:47.669Z,8.20
2018-12-19T14:23:17.353Z,8.30
2018-12-19T14:25:47.162Z,8.20
2018-12-19T14:28:16.852Z,8.20
2018-12-19T14:30:47.112Z,8.20
2018-12-19T14:33:16.915Z,8.10
2018-12-19T14:35:46.470Z,8.10
2018-12-19T14:38:16.121Z,8.20
2018-12-19T14:40:45.750Z,8.20
2018-12-19T14:43:16.591Z,8.10
2018-12-19T14:45:46.311Z,8.10
2018-12-19T14:48:15.877Z,8.10
2018-12-19T14:50:45.553Z,8.10
2018-12-19T14:53:15.223Z,8.10
2018-12-19T14:55:44.723Z,8.10
2018-12-19T14:58:14.751Z,8.10
2018-12-19T15:00:44.326Z,8.10
2018-12-19T15:03:14.599Z,8.20
2018-12-19T15:05:44.101Z,8.20
2018-12-19T15:08:13.750Z,8.20
2018-12-19T15:10:43.564Z,8.20
2018-12-19T15:13:13.347Z,8.10
2018-12-19T15:15:46.949Z,8.20
2018-12-19T15:18:16.493Z,8.10
2018-12-19T15:20:46.133Z,8.10
2018-12-19T15:23:15.727Z,8.00
2018-12-19T15:25:45.788Z,8.00
2018-12-19T15:28:15.608Z,7.90
2018-12-19T15:30:45.538Z,7.90
2018-12-19T15:33:15.129Z,7.80
2018-12-19T15:35:44.865Z,7.90
2018-12-19T15:38:14.355Z,7.90
2018-12-19T15:40:44.450Z,8.00
2018-12-19T15:43:14.022Z,8.00
2018-12-19T15:45:43.782Z,8.00
2018-12-19T15:48:13.334Z,7.90
2018-12-19T15:50:42.859Z,7.90
2018-12-19T15:53:12.411Z,8.00
2018-12-19T15:55:42.230Z,7.90
2018-12-19T15:58:11.737Z,7.90
2018-12-19T16:00:41.262Z,7.90
2018-12-19T16:03:11.069Z,7.80
2018-12-19T16:05:40.874Z,7.90
2018-12-19T16:08:10.545Z,7.90
2018-12-19T16:10:40.245Z,8.00
2018-12-19T16:13:09.916Z,7.90
2018-12-19T16:15:39.549Z,7.80
2018-12-19T16:18:09.300Z,7.70
2018-12-19T16:20:38.909Z,7.80
2018-12-19T16:23:08.703Z,7.80
2018-12-19T16:25:38.422Z,7.70
2018-12-19T16:28:07.983Z,7.70
2018-12-19T16:30:37.669Z,7.70
2018-12-19T16:33:07.153Z,7.70
2018-12-19T16:35:36.751Z,7.70
2018-12-19T16:38:06.406Z,7.70
2018-12-19T16:40:36.262Z,7.80
2018-12-19T16:43:05.890Z,7.80
2018-12-19T16:45:35.622Z,7.80
2018-12-19T16:48:05.648Z,7.80
2018-12-19T16:50:35.369Z,7.80
2018-12-19T16:53:05.163Z,7.80
2018-12-19T16:55:34.856Z,7.80
2018-12-19T16:58:04.450Z,7.70
2018-12-19T17:00:34.133Z,7.60
2018-12-19T17:03:03.820Z,7.50
2018-12-19T17:05:33.309Z,7.40
2018-12-19T17:08:02.839Z,7.40
2018-12-19T17:10:32.358Z,7.40
2018-12-19T17:13:01.848Z,7.40
2018-12-19T17:15:37.700Z,7.40
2018-12-19T17:18:07.819Z,7.40
2018-12-19T17:20:37.401Z,7.40
2018-12-19T17:23:06.834Z,7.40
2018-12-19T17:25:36.320Z,7.40
2018-12-19T17:28:05.793Z,7.40
2018-12-19T17:30:35.277Z,7.30
2018-12-19T17:33:05.573Z,7.30
2018-12-19T17:35:35.200Z,7.30
2018-12-19T17:38:04.812Z,7.10
2018-12-19T17:40:34.295Z,7.00
2018-12-19T17:43:03.955Z,7.00
2018-12-19T17:45:33.463Z,6.90
2018-12-19T17:48:02.923Z,6.80
2018-12-19T17:50:32.407Z,6.80
2018-12-19T17:53:01.950Z,6.70
2018-12-19T17:55:37.603Z,6.70
2018-12-19T17:58:07.154Z,6.60
2018-12-19T18:00:37.090Z,6.50
2018-12-19T18:03:06.634Z,6.50
2018-12-19T18:05:36.752Z,6.50
2018-12-19T18:08:07.657Z,6.50
2018-12-19T18:10:37.118Z,6.40
2018-12-19T18:13:06.577Z,6.40
2018-12-19T18:15:36.292Z,6.50
2018-12-19T18:18:05.748Z,6.50
2018-12-19T18:20:35.358Z,6.50
2018-12-19T18:23:09.110Z,6.60
2018-12-19T18:25:38.621Z,6.80
2018-12-19T18:28:08.324Z,6.90
2018-12-19T18:30:38.326Z,6.90
2018-12-19T18:33:07.975Z,6.90
2018-12-19T18:35:37.455Z,6.80
2018-12-19T18:38:06.961Z,6.80
2018-12-19T18:40:36.688Z,6.80
2018-12-19T18:43:12.735Z,6.80
2018-12-19T18:45:37.662Z,6.80
2018-12-19T18:48:07.357Z,6.80
2018-12-19T18:50:37.043Z,6.80
2018-12-19T18:53:06.527Z,6.90
2018-12-19T18:55:36.117Z,6.90
2018-12-19T18:58:05.634Z,6.90
2018-12-19T19:00:38.902Z,6.90
2018-12-19T19:03:15.242Z,6.90
2018-12-19T19:05:44.866Z,6.90
2018-12-19T19:08:14.581Z,6.90
2018-12-19T19:10:44.670Z,6.90
2018-12-19T19:13:19.699Z,6.90
2018-12-19T19:15:45.630Z,7.00
2018-12-19T19:18:15.756Z,7.10
2018-12-19T19:20:46.389Z,7.10
2018-12-19T19:23:15.861Z,7.10
2018-12-19T19:25:45.752Z,7.10
2018-12-19T19:28:15.796Z,7.10
2018-12-19T19:30:46.239Z,7.20
2018-12-19T19:33:15.865Z,7.10
2018-12-19T19:35:45.450Z,7.10
2018-12-19T19:38:14.973Z,7.10
2018-12-19T19:40:44.618Z,7.10
2018-12-19T19:43:14.202Z,6.80
2018-12-19T19:45:43.803Z,6.90
2018-12-19T19:48:13.516Z,7.00
2018-12-19T19:50:42.966Z,7.10
2018-12-19T19:53:12.503Z,7.20
2018-12-19T19:55:42.468Z,7.30
2018-12-19T19:58:11.958Z,7.20
2018-12-19T20:00:41.402Z,7.00
2018-12-19T20:03:10.972Z,7.00
2018-12-19T20:05:40.572Z,7.20
2018-12-19T20:08:10.143Z,7.10
2018-12-19T20:10:39.620Z,7.00
2018-12-19T20:13:09.155Z,7.10
2018-12-19T20:15:38.782Z,7.10
2018-12-19T20:18:11.763Z,7.10
2018-12-19T20:20:41.374Z,7.20
2018-12-19T20:23:10.819Z,7.10
2018-12-19T20:25:40.664Z,7.10
2018-12-19T20:28:10.287Z,7.20
2018-12-19T20:30:39.798Z,7.20
2018-12-19T20:33:12.451Z,7.00
2018-12-19T20:35:42.010Z,7.10
2018-12-19T20:38:11.595Z,7.20
2018-12-19T20:40:41.437Z,7.30
2018-12-19T20:43:11.040Z,7.30
2018-12-19T20:45:40.532Z,7.30
2018-12-19T20:48:10.022Z,7.30
2018-12-19T20:50:39.544Z,7.40
2018-12-19T20:53:09.316Z,7.50
2018-12-19T20:55:38.852Z,7.50
2018-12-19T20:58:08.756Z,7.50
2018-12-19T21:00:38.458Z,7.50
2018-12-19T21:03:08.103Z,7.40
2018-12-19T21:05:37.556Z,7.50
2018-12-19T21:08:07.395Z,7.50
2018-12-19T21:10:37.513Z,7.40
2018-12-19T21:13:07.151Z,7.50
2018-12-19T21:15:36.564Z,7.40
2018-12-19T21:18:11.263Z,7.50
2018-12-19T21:20:40.752Z,7.50
2018-12-19T21:23:10.326Z,7.50
2018-12-19T21:25:39.846Z,7.50
2018-12-19T21:28:09.395Z,7.60
2018-12-19T21:30:39.020Z,7.60
2018-12-19T21:33:13.978Z,7.70
2018-12-19T21:35:40.439Z,7.60
2018-12-19T21:38:09.910Z,7.70
2018-12-19T21:40:39.458Z,7.80
2018-12-19T21:43:09.599Z,7.80
2018-12-19T21:45:39.327Z,7.60
2018-12-19T21:48:09.259Z,7.70
2018-12-19T21:50:39.500Z,7.70
2018-12-19T21:53:09.656Z,7.70
2018-12-19T21:55:39.452Z,7.60
2018-12-19T21:58:09.312Z,7.70
2018-12-19T22:00:40.798Z,7.70
2018-12-19T22:03:10.652Z,7.70
2018-12-19T22:05:41.240Z,7.70
2018-12-19T22:08:10.872Z,7.60
2018-12-19T22:10:40.627Z,7.50
2018-12-19T22:13:10.381Z,7.40
2018-12-19T22:15:39.860Z,7.50
2018-12-19T22:18:14.660Z,7.60
2018-12-19T22:20:44.327Z,7.50
2018-12-19T22:23:14.002Z,7.60
2018-12-19T22:25:43.563Z,7.60
2018-12-19T22:28:13.053Z,7.60
2018-12-19T22:30:42.710Z,7.60
2018-12-19T22:33:12.324Z,7.60
2018-12-19T22:35:41.888Z,7.70
2018-12-19T22:38:11.383Z,7.70
2018-12-19T22:40:40.963Z,7.70
2018-12-19T22:43:10.548Z,7.70
2018-12-19T22:45:40.199Z,7.80
2018-12-19T22:48:09.797Z,7.80
2018-12-19T22:50:39.686Z,7.80
2018-12-19T22:53:09.491Z,7.90
2018-12-19T22:55:41.090Z,7.80
2018-12-19T22:58:10.746Z,7.80
2018-12-19T23:00:45.753Z,7.70
2018-12-19T23:03:15.471Z,7.70
2018-12-19T23:05:51.256Z,7.70
2018-12-19T23:08:21.021Z,7.70
2018-12-19T23:10:50.658Z,7.80
2018-12-19T23:13:20.707Z,7.90
2018-12-19T23:15:50.329Z,7.80
2018-12-19T23:18:25.277Z,7.80
2018-12-19T23:20:55.233Z,7.90
2018-12-19T23:23:24.982Z,7.90
2018-12-19T23:25:54.603Z,7.90
2018-12-19T23:28:24.246Z,7.90
2018-12-19T23:30:53.836Z,8.00
2018-12-19T23:33:23.314Z,7.90
2018-12-19T23:35:52.950Z,7.90
2018-12-19T23:38:22.433Z,8.00
2018-12-19T23:40:52.094Z,7.90
2018-12-19T23:43:22.061Z,7.90
2018-12-19T23:45:51.580Z,8.00
2018-12-19T23:48:21.072Z,8.00
2018-12-19T23:50:50.696Z,8.10
2018-12-19T23:53:20.447Z,8.10
2018-12-19T23:55:50.046Z,8.10
2018-12-19T23:58:19.768Z,8.10
